Time;durP1;ratioP1;P1;durP2;ratioP2;P2;SDS_P1;SDS_P2;PMS_P1;PMS_P2;Temp;Humidity;BMP_temperature;BMP_pressure;BME280_temperature;BME280_humidity;BME280_pressure;Samples;Min_cycle;Max_cycle;Signal;HPM_P1;HPM_P2
2021/11/02 00:03:35;;;;;;;;;;;17.70;43.60;;;;;;8364163;28;19917;-47
2021/11/02 00:07:35;;;;;;;;;;;17.70;43.50;;;;;;8363922;28;19921;-47
2021/11/02 00:11:36;;;;;;;;;;;17.70;43.50;;;;;;8363283;28;19921;-46
2021/11/02 00:15:37;;;;;;;;;;;17.70;43.60;;;;;;8363598;28;19935;-46
2021/11/02 00:19:41;;;;;;;;;;;17.70;43.50;;;;;;8363677;28;19925;-48
2021/11/02 00:23:42;;;;;;;;;;;17.70;43.50;;;;;;8362996;28;19986;-46
2021/11/02 00:27:43;;;;;;;;;;;17.70;43.60;;;;;;8363472;28;19917;-46
2021/11/02 00:31:43;;;;;;;;;;;17.70;43.50;;;;;;8363237;28;19916;-47
2021/11/02 00:35:44;;;;;;;;;;;17.70;43.50;;;;;;8362912;28;19921;-46
2021/11/02 00:39:44;;;;;;;;;;;17.70;43.50;;;;;;8363564;28;19920;-46
2021/11/02 00:43:47;;;;;;;;;;;17.70;43.50;;;;;;8363270;28;20295;-51
2021/11/02 00:47:51;;;;;;;;;;;17.70;43.60;;;;;;8362670;28;19928;-46
2021/11/02 00:51:52;;;;;;;;;;;17.70;43.60;;;;;;8368442;28;19917;-46
2021/11/02 00:55:53;;;;;;;;;;;17.70;43.50;;;;;;8369644;28;20377;-48
2021/11/02 00:59:53;;;;;;;;;;;17.70;43.50;;;;;;8369424;28;20289;-47
2021/11/02 01:03:53;;;;;;;;;;;17.70;43.50;;;;;;8369253;28;19928;-49
2021/11/02 01:07:54;;;;;;;;;;;17.70;43.50;;;;;;8369125;28;19956;-50
2021/11/02 01:11:54;;;;;;;;;;;17.70;43.50;;;;;;8368830;28;20369;-47
2021/11/02 01:15:55;;;;;;;;;;;17.70;43.50;;;;;;8368929;28;19970;-48
2021/11/02 01:19:56;;;;;;;;;;;17.70;43.50;;;;;;8368898;28;19913;-48
2021/11/02 01:23:57;;;;;;;;;;;17.70;43.50;;;;;;8368246;28;19976;-47
2021/11/02 01:27:57;;;;;;;;;;;17.70;43.50;;;;;;8368437;28;20341;-47
2021/11/02 01:31:58;;;;;;;;;;;17.70;43.50;;;;;;8368270;28;19975;-47
2021/11/02 01:35:58;;;;;;;;;;;17.70;43.50;;;;;;8367789;28;19996;-47
2021/11/02 01:39:59;;;;;;;;;;;17.70;43.50;;;;;;8368522;28;19920;-48
2021/11/02 01:44:00;;;;;;;;;;;17.70;43.60;;;;;;8368109;28;20004;-48
2021/11/02 01:48:00;;;;;;;;;;;17.60;43.50;;;;;;8367460;28;19921;-47
2021/11/02 01:52:02;;;;;;;;;;;17.60;43.50;;;;;;8367692;28;19943;-46
2021/11/02 01:56:02;;;;;;;;;;;17.70;44.10;;;;;;8368022;28;19927;-47
2021/11/02 02:00:06;;;;;;;;;;;17.60;43.50;;;;;;8367226;28;19913;-46
2021/11/02 02:04:10;;;;;;;;;;;17.60;43.50;;;;;;8366856;28;19916;-48
2021/11/02 02:08:34;;;;;;;;;;;17.60;43.50;;;;;;8347619;28;19975;-49
2021/11/02 02:12:40;;;;;;;;;;;17.60;43.60;;;;;;8350952;28;19917;-48
2021/11/02 02:16:47;;;;;;;;;;;17.60;43.50;;;;;;8367043;28;20388;-48
2021/11/02 02:21:07;;;;;;;;;;;17.60;43.50;;;;;;8366535;28;19917;-47
2021/11/02 02:25:13;;;;;;;;;;;17.60;43.60;;;;;;8367052;28;19917;-48
2021/11/02 02:29:14;;;;;;;;;;;17.60;43.60;;;;;;8366241;28;20449;-48
2021/11/02 02:33:16;;;;;;;;;;;17.60;43.60;;;;;;8366647;28;19917;-47
2021/11/02 02:37:21;;;;;;;;;;;17.60;43.60;;;;;;8366491;28;19929;-47
2021/11/02 02:41:22;;;;;;;;;;;17.60;43.60;;;;;;8366038;28;19916;-48
2021/11/02 02:45:24;;;;;;;;;;;17.60;43.60;;;;;;8366403;28;19922;-48
2021/11/02 02:49:25;;;;;;;;;;;17.60;43.60;;;;;;8365889;28;19917;-47
2021/11/02 02:53:26;;;;;;;;;;;17.60;43.60;;;;;;8365505;28;19917;-46
2021/11/02 02:57:28;;;;;;;;;;;17.50;43.60;;;;;;8366236;28;19925;-47
2021/11/02 03:01:28;;;;;;;;;;;17.50;43.60;;;;;;8365793;28;19920;-47
2021/11/02 03:05:29;;;;;;;;;;;17.50;43.60;;;;;;8365393;28;20339;-46
2021/11/02 03:09:30;;;;;;;;;;;17.60;43.70;;;;;;8365311;28;19920;-48
2021/11/02 03:13:32;;;;;;;;;;;17.50;43.60;;;;;;8364155;28;19921;-47
2021/11/02 03:17:40;;;;;;;;;;;17.50;43.60;;;;;;8364522;28;20431;-47
2021/11/02 03:56:20;;;;;;;;;;;17.50;43.60;;;;;;8364868;28;19925;-47
2021/11/02 04:47:45;;;;;;;;;;;17.50;43.60;;;;;;8369964;28;19917;-47
2021/11/02 06:00:18;;;;;;;;;;;17.40;43.60;;;;;;8367012;28;20377;-48
2021/11/02 06:34:41;;;;;;;;;;;17.40;43.60;;;;;;8369836;28;19916;-46
2021/11/02 06:43:16;;;;;;;;;;;17.40;43.70;;;;;;8371736;28;19921;-45
2021/11/02 08:48:59;;;;;;;;;;;17.30;43.80;;;;;;8363052;28;19928;-46
2021/11/02 08:53:01;;;;;;;;;;;17.30;43.80;;;;;;8363231;28;20000;-49
2021/11/02 08:57:01;;;;;;;;;;;17.30;43.80;;;;;;8362183;28;19931;-50
2021/11/02 09:01:02;;;;;;;;;;;17.30;43.70;;;;;;8362877;28;20003;-47
2021/11/02 09:05:05;;;;;;;;;;;17.40;43.80;;;;;;8362826;28;19917;-46
2021/11/02 09:09:07;;;;;;;;;;;17.40;43.80;;;;;;8362149;28;20374;-46
2021/11/02 09:13:09;;;;;;;;;;;17.40;43.80;;;;;;8368129;28;20006;-47
2021/11/02 09:17:09;;;;;;;;;;;17.40;43.80;;;;;;8368820;28;19975;-47
2021/11/02 09:21:10;;;;;;;;;;;17.40;43.70;;;;;;8368317;28;20234;-48
2021/11/02 09:25:11;;;;;;;;;;;17.40;43.70;;;;;;8368760;28;19920;-50
2021/11/02 09:29:13;;;;;;;;;;;17.40;43.70;;;;;;8368630;28;20471;-49
2021/11/02 09:33:13;;;;;;;;;;;17.40;43.70;;;;;;8368585;28;19917;-48
2021/11/02 09:37:17;;;;;;;;;;;17.40;43.70;;;;;;8368529;28;19986;-50
2021/11/02 09:41:34;;;;;;;;;;;17.40;43.70;;;;;;8367863;28;19939;-47
2021/11/02 09:45:53;;;;;;;;;;;17.40;43.80;;;;;;8368233;28;20373;-48
2021/11/02 09:49:54;;;;;;;;;;;17.50;43.80;;;;;;8367841;28;19917;-47
2021/11/02 09:54:01;;;;;;;;;;;17.50;43.80;;;;;;8367213;28;20373;-49
2021/11/02 09:58:05;;;;;;;;;;;17.40;43.80;;;;;;8367781;28;19925;-47
2021/11/02 10:02:25;;;;;;;;;;;17.40;43.80;;;;;;8367471;28;19927;-48
2021/11/02 10:06:37;;;;;;;;;;;17.40;43.80;;;;;;8365838;28;20429;-47
2021/11/02 10:10:53;;;;;;;;;;;17.50;43.80;;;;;;8367052;28;20384;-50
2021/11/02 10:14:55;;;;;;;;;;;17.50;43.90;;;;;;8366587;28;20451;-49
2021/11/02 10:19:05;;;;;;;;;;;17.50;43.90;;;;;;8365542;28;19951;-47
2021/11/02 10:23:06;;;;;;;;;;;17.50;43.80;;;;;;8366617;28;19956;-47
2021/11/02 10:27:18;;;;;;;;;;;17.50;43.80;;;;;;8366149;28;19924;-50
2021/11/02 10:31:39;;;;;;;;;;;17.50;43.80;;;;;;8366765;28;19917;-48
2021/11/02 10:35:59;;;;;;;;;;;17.50;43.90;;;;;;8365322;28;20449;-49
2021/11/02 10:40:15;;;;;;;;;;;17.50;43.90;;;;;;8366331;28;19935;-51
2021/11/02 10:44:18;;;;;;;;;;;17.50;43.80;;;;;;8365618;28;19917;-47
2021/11/02 10:48:37;;;;;;;;;;;17.50;43.90;;;;;;8366108;28;19923;-49
2021/11/02 10:52:38;;;;;;;;;;;17.50;43.80;;;;;;8366240;28;19916;-47
2021/11/02 10:56:39;;;;;;;;;;;17.50;43.80;;;;;;8365814;28;19932;-49
2021/11/02 11:00:40;;;;;;;;;;;17.60;43.90;;;;;;8365762;28;19917;-48
2021/11/02 11:04:45;;;;;;;;;;;17.60;43.90;;;;;;8364517;28;19917;-49
2021/11/02 11:08:47;;;;;;;;;;;17.60;43.80;;;;;;8365317;28;19920;-47
2021/11/02 11:12:49;;;;;;;;;;;17.60;43.90;;;;;;8365308;28;20423;-47
2021/11/02 11:16:51;;;;;;;;;;;17.60;43.90;;;;;;8365179;28;19924;-48
2021/11/02 11:20:51;;;;;;;;;;;17.60;43.90;;;;;;8364703;28;19921;-46
2021/11/02 11:24:56;;;;;;;;;;;17.60;43.90;;;;;;8364918;28;20683;-49
2021/11/02 11:28:57;;;;;;;;;;;17.60;43.90;;;;;;8365173;28;19975;-48
2021/11/02 11:32:59;;;;;;;;;;;17.60;43.90;;;;;;8364155;28;20301;-47
2021/11/02 11:37:00;;;;;;;;;;;17.60;43.90;;;;;;8364078;28;19968;-47
2021/11/02 11:41:03;;;;;;;;;;;17.60;43.90;;;;;;8364704;28;19920;-46
2021/11/02 11:45:08;;;;;;;;;;;17.60;43.90;;;;;;8364062;28;20282;-47
2021/11/02 11:49:10;;;;;;;;;;;17.60;43.90;;;;;;8364794;28;20309;-47
2021/11/02 11:53:21;;;;;;;;;;;17.60;43.90;;;;;;8364141;28;20336;-50
2021/11/02 11:57:31;;;;;;;;;;;17.60;43.90;;;;;;8364013;28;19982;-50
2021/11/02 12:01:40;;;;;;;;;;;17.60;43.90;;;;;;8364455;28;19921;-49
2021/11/02 12:05:42;;;;;;;;;;;17.60;43.90;;;;;;8363404;28;19986;-49
2021/11/02 12:09:44;;;;;;;;;;;17.60;43.90;;;;;;8364057;28;19996;-51
2021/11/02 12:13:47;;;;;;;;;;;17.60;43.90;;;;;;8363920;28;20385;-49
2021/11/02 12:17:49;;;;;;;;;;;17.60;43.90;;;;;;8363137;28;20366;-48
2021/11/02 12:22:01;;;;;;;;;;;17.60;43.90;;;;;;8363677;28;19923;-48
2021/11/02 12:26:03;;;;;;;;;;;17.60;43.90;;;;;;8363558;28;19920;-51
2021/11/02 12:30:04;;;;;;;;;;;17.60;43.90;;;;;;8363005;28;19947;-48
2021/11/02 12:34:14;;;;;;;;;;;17.60;43.90;;;;;;8363907;28;19913;-47
2021/11/02 12:38:26;;;;;;;;;;;17.60;43.90;;;;;;8362709;28;20051;-48
2021/11/02 12:42:36;;;;;;;;;;;17.60;43.90;;;;;;8363723;28;19917;-48
2021/11/02 12:46:39;;;;;;;;;;;17.60;43.90;;;;;;8366685;28;19939;-51
2021/11/02 12:50:40;;;;;;;;;;;17.60;43.90;;;;;;8369394;28;19917;-52
2021/11/02 12:54:40;;;;;;;;;;;17.60;43.90;;;;;;8369940;28;19921;-49
2021/11/02 12:58:43;;;;;;;;;;;17.60;43.90;;;;;;8369495;28;19928;-48
2021/11/02 13:02:56;;;;;;;;;;;17.60;43.90;;;;;;8368853;28;19943;-47
2021/11/02 13:06:58;;;;;;;;;;;17.60;43.90;;;;;;8369261;28;19923;-48
2021/11/02 13:11:06;;;;;;;;;;;17.60;43.90;;;;;;8369262;28;19924;-48
2021/11/02 13:15:11;;;;;;;;;;;17.60;43.90;;;;;;8368604;28;19923;-48
2021/11/02 13:19:15;;;;;;;;;;;17.60;43.90;;;;;;8369282;28;19939;-47
2021/11/02 13:23:15;;;;;;;;;;;17.60;43.90;;;;;;8368434;28;20305;-47
2021/11/02 13:27:16;;;;;;;;;;;17.60;43.90;;;;;;8368594;28;19924;-48
2021/11/02 13:31:32;;;;;;;;;;;17.60;43.90;;;;;;8368620;28;20293;-48
2021/11/02 13:35:36;;;;;;;;;;;17.60;43.90;;;;;;8367775;28;19995;-51
2021/11/02 13:39:54;;;;;;;;;;;17.60;43.90;;;;;;8368731;28;19948;-51
2021/11/02 13:43:55;;;;;;;;;;;17.60;43.90;;;;;;8367986;28;19916;-48
2021/11/02 13:47:56;;;;;;;;;;;17.60;43.90;;;;;;8367641;28;19945;-47
2021/11/02 13:51:57;;;;;;;;;;;17.60;44.00;;;;;;8367845;28;19916;-48
2021/11/02 13:55:58;;;;;;;;;;;17.60;43.90;;;;;;8367775;28;19967;-47
2021/11/02 13:59:58;;;;;;;;;;;17.60;43.90;;;;;;8366859;28;19929;-47
2021/11/02 14:04:17;;;;;;;;;;;17.60;43.90;;;;;;8367388;28;19924;-48
2021/11/02 14:08:19;;;;;;;;;;;17.60;43.90;;;;;;8355916;28;19944;-48
2021/11/02 14:12:25;;;;;;;;;;;17.60;43.90;;;;;;8350566;28;19943;-51
2021/11/02 14:16:27;;;;;;;;;;;17.60;43.80;;;;;;8367260;28;19917;-49
2021/11/02 14:20:35;;;;;;;;;;;17.60;43.80;;;;;;8366712;28;19962;-48
2021/11/02 14:24:42;;;;;;;;;;;17.60;43.80;;;;;;8367152;28;19917;-51
2021/11/02 14:28:46;;;;;;;;;;;17.60;43.70;;;;;;8366660;28;20003;-49
2021/11/02 14:32:47;;;;;;;;;;;17.60;43.70;;;;;;8366189;28;19924;-49
2021/11/02 14:36:48;;;;;;;;;;;17.60;43.70;;;;;;8366666;28;19928;-48
2021/11/02 14:40:50;;;;;;;;;;;17.60;43.70;;;;;;8366412;28;19917;-52
2021/11/02 14:44:51;;;;;;;;;;;17.60;43.70;;;;;;8365862;28;19921;-48
2021/11/02 14:48:52;;;;;;;;;;;17.60;43.80;;;;;;8366220;28;19969;-50
2021/11/02 14:53:07;;;;;;;;;;;17.60;43.80;;;;;;8365981;28;19917;-47
2021/11/02 14:57:20;;;;;;;;;;;17.60;43.80;;;;;;8365770;28;19931;-50
2021/11/02 15:01:22;;;;;;;;;;;17.60;43.80;;;;;;8365800;28;19917;-48
2021/11/02 15:05:22;;;;;;;;;;;17.60;43.90;;;;;;8365224;28;19928;-48
2021/11/02 15:09:26;;;;;;;;;;;17.60;43.80;;;;;;8365041;28;19916;-47
2021/11/02 15:13:26;;;;;;;;;;;17.60;43.80;;;;;;8365090;28;19923;-47
2021/11/02 15:17:27;;;;;;;;;;;17.60;43.80;;;;;;8364904;28;20324;-50
2021/11/02 15:21:29;;;;;;;;;;;17.60;43.90;;;;;;8365161;28;20433;-47
2021/11/02 15:25:30;;;;;;;;;;;17.60;43.90;;;;;;8365261;28;19916;-50
2021/11/02 15:29:31;;;;;;;;;;;17.60;43.80;;;;;;8364401;28;20342;-48
2021/11/02 15:33:36;;;;;;;;;;;17.60;43.80;;;;;;8364494;28;19921;-46
2021/11/02 15:37:38;;;;;;;;;;;17.60;43.80;;;;;;8364492;28;19971;-51
2021/11/02 15:41:39;;;;;;;;;;;17.60;43.80;;;;;;8364101;28;19963;-48
2021/11/02 15:45:43;;;;;;;;;;;17.60;43.90;;;;;;8364837;28;19924;-46
2021/11/02 15:49:44;;;;;;;;;;;17.60;43.80;;;;;;8364262;28;19917;-47
2021/11/02 15:53:45;;;;;;;;;;;17.50;43.80;;;;;;8363814;28;19939;-48
2021/11/02 15:57:53;;;;;;;;;;;17.50;43.80;;;;;;8363714;28;19932;-47
2021/11/02 16:01:54;;;;;;;;;;;17.50;43.90;;;;;;8367660;28;19924;-46
2021/11/02 16:05:55;;;;;;;;;;;17.50;43.80;;;;;;8363777;28;20381;-46
2021/11/02 16:09:55;;;;;;;;;;;17.60;44.40;;;;;;8363594;28;19917;-48
2021/11/02 16:14:03;;;;;;;;;;;17.50;43.80;;;;;;8363579;28;19939;-50
2021/11/02 16:18:24;;;;;;;;;;;17.50;43.80;;;;;;8362951;28;19925;-48
2021/11/02 16:22:26;;;;;;;;;;;17.50;43.90;;;;;;8363075;28;19917;-48
2021/11/02 16:26:27;;;;;;;;;;;17.60;43.90;;;;;;8363385;28;20435;-49
2021/11/02 16:30:40;;;;;;;;;;;17.50;43.90;;;;;;8363782;28;20274;-48
2021/11/02 16:34:42;;;;;;;;;;;17.60;43.90;;;;;;8363580;28;20263;-47
2021/11/02 16:38:43;;;;;;;;;;;17.50;43.90;;;;;;8362759;28;20382;-46
2021/11/02 16:42:55;;;;;;;;;;;17.50;43.90;;;;;;8362987;28;19996;-48
2021/11/02 16:47:02;;;;;;;;;;;17.50;43.90;;;;;;8363411;28;19971;-51
2021/11/02 16:51:02;;;;;;;;;;;17.50;43.90;;;;;;8363307;28;19921;-48
2021/11/02 16:55:13;;;;;;;;;;;17.50;43.90;;;;;;8363416;28;19920;-48
2021/11/02 16:59:34;;;;;;;;;;;17.50;43.80;;;;;;8365451;28;19925;-49
2021/11/02 17:03:35;;;;;;;;;;;17.50;43.90;;;;;;8362909;28;20393;-48
2021/11/02 17:07:36;;;;;;;;;;;17.50;43.80;;;;;;8350022;28;19978;-48
2021/11/02 17:11:41;;;;;;;;;;;17.50;43.80;;;;;;8362331;28;19999;-47
2021/11/02 17:15:50;;;;;;;;;;;17.50;43.80;;;;;;8363172;28;19917;-48
2021/11/02 17:19:51;;;;;;;;;;;17.50;43.80;;;;;;8362674;28;19925;-47
2021/11/02 17:23:52;;;;;;;;;;;17.50;43.80;;;;;;8362117;28;20285;-49
2021/11/02 17:27:52;;;;;;;;;;;17.50;43.80;;;;;;8362570;28;19916;-48
2021/11/02 17:31:53;;;;;;;;;;;17.40;43.80;;;;;;8362623;28;19913;-49
2021/11/02 17:35:54;;;;;;;;;;;17.50;43.80;;;;;;8368290;28;19916;-47
2021/11/02 17:39:55;;;;;;;;;;;17.40;43.80;;;;;;8368219;28;19925;-49
2021/11/02 17:43:56;;;;;;;;;;;17.40;43.80;;;;;;8368637;28;20390;-51
2021/11/02 17:47:57;;;;;;;;;;;17.40;43.80;;;;;;8367726;28;20489;-48
2021/11/02 17:51:58;;;;;;;;;;;17.40;43.80;;;;;;8368023;28;19913;-52
2021/11/02 17:56:03;;;;;;;;;;;17.40;43.80;;;;;;8368069;28;20059;-49
2021/11/02 18:00:04;;;;;;;;;;;17.40;43.80;;;;;;8367324;28;19932;-49
2021/11/02 18:04:05;;;;;;;;;;;17.40;43.80;;;;;;8364058;28;19917;-48
2021/11/02 18:08:07;;;;;;;;;;;17.40;43.80;;;;;;8366979;28;19943;-46
2021/11/02 18:12:07;;;;;;;;;;;17.40;43.80;;;;;;8366755;28;19913;-46
2021/11/02 18:16:09;;;;;;;;;;;17.40;43.80;;;;;;8367358;28;20286;-47
2021/11/02 18:20:10;;;;;;;;;;;17.40;43.70;;;;;;8366570;28;19925;-48
2021/11/02 18:24:11;;;;;;;;;;;17.40;43.70;;;;;;8365920;28;20289;-47
2021/11/02 18:28:11;;;;;;;;;;;17.40;43.70;;;;;;8366753;28;19986;-50
2021/11/02 18:32:12;;;;;;;;;;;17.40;44.00;;;;;;8366665;28;19956;-47
2021/11/02 18:36:13;;;;;;;;;;;17.40;43.70;;;;;;8366854;28;19913;-48
2021/11/02 18:40:15;;;;;;;;;;;17.40;43.70;;;;;;8366161;28;19929;-45
2021/11/02 18:44:15;;;;;;;;;;;17.40;43.70;;;;;;8363963;28;19983;-48
2021/11/02 18:48:16;;;;;;;;;;;17.30;43.70;;;;;;8366390;28;19999;-48
2021/11/02 18:52:16;;;;;;;;;;;17.30;43.60;;;;;;8366422;28;19967;-49
2021/11/02 18:56:17;;;;;;;;;;;17.30;43.70;;;;;;8366409;28;19920;-49
2021/11/02 19:00:17;;;;;;;;;;;17.30;43.70;;;;;;8365707;28;19955;-48
2021/11/02 19:04:18;;;;;;;;;;;17.30;43.70;;;;;;8365700;28;19969;-48
2021/11/02 19:08:18;;;;;;;;;;;17.30;43.70;;;;;;8365007;28;19917;-49
2021/11/02 19:12:19;;;;;;;;;;;17.30;43.70;;;;;;8366001;28;19942;-48
2021/11/02 19:16:19;;;;;;;;;;;17.30;43.60;;;;;;8365553;28;19917;-47
2021/11/02 19:20:21;;;;;;;;;;;17.30;43.60;;;;;;8364895;28;19925;-48
2021/11/02 19:24:21;;;;;;;;;;;17.30;43.60;;;;;;8365109;28;19995;-48
2021/11/02 19:28:22;;;;;;;;;;;17.30;43.60;;;;;;8364825;28;19925;-47
2021/11/02 19:32:23;;;;;;;;;;;17.30;43.60;;;;;;8364696;28;19966;-47
2021/11/02 19:36:23;;;;;;;;;;;17.30;43.60;;;;;;8365092;28;20420;-47
2021/11/02 19:40:24;;;;;;;;;;;17.30;43.60;;;;;;8364435;28;20382;-47
2021/11/02 19:44:24;;;;;;;;;;;17.30;43.60;;;;;;8364072;28;20326;-46
2021/11/02 19:48:25;;;;;;;;;;;17.30;43.60;;;;;;8364491;28;19917;-46
2021/11/02 19:52:25;;;;;;;;;;;17.30;43.50;;;;;;8364491;28;19913;-48
2021/11/02 19:56:26;;;;;;;;;;;17.30;43.50;;;;;;8363499;28;19924;-47
2021/11/02 20:00:28;;;;;;;;;;;17.30;43.50;;;;;;8364348;28;19943;-46
2021/11/02 20:04:28;;;;;;;;;;;17.30;43.50;;;;;;8363904;28;19917;-47
2021/11/02 20:08:35;;;;;;;;;;;17.30;43.50;;;;;;8363445;28;19917;-47
2021/11/02 20:12:42;;;;;;;;;;;17.30;43.50;;;;;;8342457;28;19913;-48
2021/11/02 20:16:43;;;;;;;;;;;17.30;43.50;;;;;;8363379;28;19921;-47
2021/11/02 20:20:43;;;;;;;;;;;17.30;43.40;;;;;;8363179;28;19921;-47
2021/11/02 20:24:44;;;;;;;;;;;17.30;43.50;;;;;;8363699;28;20050;-49
2021/11/02 20:28:48;;;;;;;;;;;17.20;43.40;;;;;;8363643;28;20328;-47
2021/11/02 20:32:49;;;;;;;;;;;17.20;43.40;;;;;;8363433;28;20015;-47
2021/11/02 20:36:56;;;;;;;;;;;17.20;43.40;;;;;;8363599;28;19982;-47
2021/11/02 20:40:58;;;;;;;;;;;17.20;43.40;;;;;;8363602;28;19916;-50
2021/11/02 20:44:59;;;;;;;;;;;17.20;43.50;;;;;;8362765;28;19991;-51
2021/11/02 20:49:02;;;;;;;;;;;17.20;43.50;;;;;;8363445;28;19996;-47
2021/11/02 20:53:02;;;;;;;;;;;17.20;43.40;;;;;;8363382;28;19921;-47
2021/11/02 20:57:04;;;;;;;;;;;17.20;43.40;;;;;;8363208;28;20436;-47
2021/11/02 21:01:04;;;;;;;;;;;17.20;43.40;;;;;;8363492;28;19952;-48
2021/11/02 21:05:05;;;;;;;;;;;17.20;43.40;;;;;;8362968;28;20385;-47
2021/11/02 21:09:06;;;;;;;;;;;17.20;43.40;;;;;;8367805;28;19924;-48
2021/11/02 21:13:10;;;;;;;;;;;17.20;43.40;;;;;;8369260;28;19921;-48
2021/11/02 21:17:11;;;;;;;;;;;17.20;43.40;;;;;;8369177;28;20378;-50
2021/11/02 21:21:11;;;;;;;;;;;17.20;43.40;;;;;;8368651;28;19917;-48
2021/11/02 21:25:12;;;;;;;;;;;17.10;43.30;;;;;;8368728;28;19917;-47
2021/11/02 21:29:13;;;;;;;;;;;17.10;43.40;;;;;;8368158;28;19917;-48
2021/11/02 21:33:13;;;;;;;;;;;17.10;43.30;;;;;;8369057;28;19936;-48
2021/11/02 21:37:15;;;;;;;;;;;17.10;43.30;;;;;;8368564;28;20333;-47
2021/11/02 21:41:34;;;;;;;;;;;17.10;43.40;;;;;;8367958;28;19999;-49
2021/11/02 21:45:35;;;;;;;;;;;17.10;43.30;;;;;;8368003;28;19928;-48
2021/11/02 21:49:46;;;;;;;;;;;17.10;43.30;;;;;;8368253;28;19936;-48
2021/11/02 21:53:50;;;;;;;;;;;17.10;43.30;;;;;;8367568;28;19925;-47
2021/11/02 21:58:10;;;;;;;;;;;17.10;43.30;;;;;;8367878;28;19967;-46
2021/11/02 22:02:27;;;;;;;;;;;17.10;43.30;;;;;;8367756;28;19921;-47
2021/11/02 22:06:29;;;;;;;;;;;17.10;43.30;;;;;;8344781;28;19921;-47
2021/11/02 22:10:30;;;;;;;;;;;17.10;43.30;;;;;;8367334;28;19940;-47
2021/11/02 22:14:30;;;;;;;;;;;17.10;43.30;;;;;;8367017;28;19917;-47
2021/11/02 22:18:34;;;;;;;;;;;17.10;43.30;;;;;;8366928;28;20027;-47
2021/11/02 22:22:34;;;;;;;;;;;17.10;43.30;;;;;;8367131;28;20011;-47
2021/11/02 22:26:35;;;;;;;;;;;17.10;43.30;;;;;;8366634;28;20015;-47
2021/11/02 22:30:39;;;;;;;;;;;17.10;43.30;;;;;;8366731;28;19962;-46
2021/11/02 22:34:42;;;;;;;;;;;17.10;43.30;;;;;;8366668;28;19912;-46
2021/11/02 22:38:42;;;;;;;;;;;17.10;43.30;;;;;;8366294;28;20373;-47
2021/11/02 22:42:43;;;;;;;;;;;17.10;43.20;;;;;;8366383;28;19921;-47
2021/11/02 22:46:44;;;;;;;;;;;17.10;43.20;;;;;;8366443;28;20011;-47
2021/11/02 22:50:45;;;;;;;;;;;17.10;43.20;;;;;;8365975;28;19917;-47
2021/11/02 22:54:45;;;;;;;;;;;17.10;43.20;;;;;;8366237;28;19928;-47
2021/11/02 22:58:46;;;;;;;;;;;17.10;43.20;;;;;;8366029;28;20004;-47
2021/11/02 23:02:46;;;;;;;;;;;17.10;43.20;;;;;;8348313;28;20290;-47
2021/11/02 23:06:47;;;;;;;;;;;17.10;43.20;;;;;;8355446;28;20322;-47
2021/11/02 23:10:48;;;;;;;;;;;17.10;43.20;;;;;;8365544;28;20384;-47
2021/11/02 23:14:48;;;;;;;;;;;17.10;43.20;;;;;;8365249;28;19959;-47
2021/11/02 23:18:50;;;;;;;;;;;17.10;43.20;;;;;;8365655;28;19920;-47
2021/11/02 23:22:58;;;;;;;;;;;17.10;43.20;;;;;;8365052;28;19999;-47
2021/11/02 23:26:59;;;;;;;;;;;17.10;43.20;;;;;;8364559;28;19916;-48
2021/11/02 23:31:00;;;;;;;;;;;17.10;43.20;;;;;;8364840;28;19957;-47
2021/11/02 23:35:01;;;;;;;;;;;17.10;43.20;;;;;;8364697;28;20301;-47
2021/11/02 23:39:03;;;;;;;;;;;17.10;43.20;;;;;;8364382;28;19974;-47
2021/11/02 23:43:04;;;;;;;;;;;17.00;43.10;;;;;;8364640;28;19917;-47
2021/11/02 23:47:04;;;;;;;;;;;17.00;43.10;;;;;;8364367;28;19995;-47
2021/11/02 23:51:06;;;;;;;;;;;17.10;43.20;;;;;;8363913;28;19917;-47
2021/11/02 23:55:08;;;;;;;;;;;17.00;43.20;;;;;;8364146;28;19924;-47
2021/11/02 23:59:08;;;;;;;;;;;17.00;43.20;;;;;;8364786;28;19921;-47
